Time;durP1;ratioP1;P1;durP2;ratioP2;P2;SDS_P1;SDS_P2;PMS_P1;PMS_P2;Temp;Humidity;BMP_temperature;BMP_pressure;BME280_temperature;BME280_humidity;BME280_pressure;Samples;Min_cycle;Max_cycle;Signal;HPM_P1;HPM_P2
2023/01/27 00:00:20;;;;;;;11.35;2.42;;;6.10;99.90;;;;;;5033203;28;20050;-72
2023/01/27 00:02:45;;;;;;;16.50;2.60;;;6.10;99.90;;;;;;5033136;28;20065;-72
2023/01/27 00:05:14;;;;;;;11.40;3.15;;;6.20;99.90;;;;;;5032313;28;20435;-72
2023/01/27 00:07:44;;;;;;;12.00;2.28;;;6.30;99.90;;;;;;5033623;28;20026;-73
2023/01/27 00:10:13;;;;;;;17.33;2.28;;;6.30;99.90;;;;;;5033400;28;20040;-72
2023/01/27 00:15:23;;;;;;;16.73;2.97;;;6.20;99.90;;;;;;5033102;28;20033;-72
2023/01/27 00:17:49;;;;;;;11.90;2.72;;;6.20;99.90;;;;;;5033191;28;20034;-72
2023/01/27 00:24:34;;;;;;;10.93;2.90;;;6.20;99.90;;;;;;5032656;28;20231;-72
2023/01/27 00:25:49;;;;;;;21.25;3.78;;;6.10;99.90;;;;;;5031951;28;20144;-72
2023/01/27 00:28:21;;;;;;;18.55;2.63;;;6.10;99.90;;;;;;5033369;28;20033;-72
2023/01/27 00:30:48;;;;;;;18.60;3.20;;;6.10;99.90;;;;;;5031897;28;20033;-72
2023/01/27 00:33:26;;;;;;;16.77;3.42;;;6.10;99.90;;;;;;5032076;28;20034;-72
2023/01/27 00:35:59;;;;;;;14.20;3.00;;;6.10;99.90;;;;;;5032565;28;20029;-71
2023/01/27 00:38:30;;;;;;;14.75;2.53;;;6.30;99.90;;;;;;5033390;28;20466;-72
2023/01/27 00:41:18;;;;;;;21.02;2.78;;;6.40;99.90;;;;;;5033122;28;20036;-72
2023/01/27 00:43:48;;;;;;;12.07;2.20;;;6.40;99.90;;;;;;5031982;28;20373;-71
2023/01/27 00:46:15;;;;;;;10.50;2.90;;;6.40;99.90;;;;;;5032954;28;20029;-72
2023/01/27 00:48:41;;;;;;;13.13;2.97;;;6.50;99.90;;;;;;5033123;28;20112;-72
2023/01/27 00:51:08;;;;;;;12.05;2.90;;;6.50;99.90;;;;;;5031663;28;20168;-72
2023/01/27 00:53:33;;;;;;;7.68;2.20;;;6.30;99.90;;;;;;5032907;28;20067;-72
2023/01/27 00:55:59;;;;;;;14.68;3.35;;;6.30;99.90;;;;;;5032326;28;20029;-72
2023/01/27 00:58:26;;;;;;;11.55;3.08;;;6.50;99.90;;;;;;5031945;28;20476;-72
2023/01/27 01:01:00;;;;;;;9.23;2.97;;;6.50;99.90;;;;;;5014715;28;20045;-72
2023/01/27 01:03:30;;;;;;;16.38;3.10;;;6.40;99.90;;;;;;5033045;28;20033;-71
2023/01/27 01:05:57;;;;;;;12.30;2.75;;;6.20;99.90;;;;;;5015494;28;20045;-71
2023/01/27 01:08:23;;;;;;;10.48;2.67;;;6.00;99.90;;;;;;5031752;28;20037;-72
2023/01/27 01:10:48;;;;;;;12.23;3.92;;;6.00;99.90;;;;;;5036007;28;20394;-72
2023/01/27 01:13:14;;;;;;;10.50;2.55;;;6.00;99.90;;;;;;5035726;28;20057;-72
2023/01/27 01:15:40;;;;;;;10.57;2.80;;;6.10;99.90;;;;;;5035077;28;20037;-72
2023/01/27 01:18:08;;;;;;;9.40;2.88;;;6.00;99.90;;;;;;5036660;28;20034;-72
2023/01/27 01:20:38;;;;;;;11.02;2.67;;;5.90;99.90;;;;;;5035000;28;20043;-72
2023/01/27 01:23:05;;;;;;;13.70;3.40;;;5.80;99.90;;;;;;5036138;28;20057;-72
2023/01/27 01:25:31;;;;;;;13.57;3.42;;;5.70;99.90;;;;;;5036302;28;20067;-72
2023/01/27 01:27:57;;;;;;;13.43;3.30;;;5.70;99.90;;;;;;5035024;28;20033;-72
2023/01/27 01:30:25;;;;;;;9.73;3.60;;;5.80;99.90;;;;;;5018690;28;20052;-72
2023/01/27 01:32:52;;;;;;;15.65;4.30;;;5.90;99.90;;;;;;5035132;28;20037;-72
2023/01/27 01:35:18;;;;;;;11.23;4.55;;;5.90;99.90;;;;;;5034481;28;20033;-72
2023/01/27 01:37:43;;;;;;;13.23;3.90;;;5.90;99.90;;;;;;5036078;28;20053;-72
2023/01/27 01:40:13;;;;;;;10.18;4.05;;;5.90;99.90;;;;;;5035390;28;20056;-72
2023/01/27 01:43:00;;;;;;;15.00;5.05;;;6.00;99.90;;;;;;5034832;28;20106;-72
2023/01/27 01:45:35;;;;;;;13.73;5.38;;;6.10;99.90;;;;;;5035994;28;20050;-72
2023/01/27 01:48:05;;;;;;;10.30;4.30;;;6.10;99.90;;;;;;5035140;28;20034;-72
2023/01/27 01:50:32;;;;;;;14.48;4.38;;;6.00;99.90;;;;;;5035575;28;20038;-72
2023/01/27 01:52:58;;;;;;;14.82;5.40;;;6.00;99.90;;;;;;5018452;28;20034;-72
2023/01/27 01:55:25;;;;;;;14.75;4.15;;;6.00;99.90;;;;;;5036011;28;20458;-72
2023/01/27 01:57:50;;;;;;;13.27;4.90;;;6.20;99.90;;;;;;5034199;28;20045;-71
2023/01/27 02:00:16;;;;;;;14.55;4.90;;;6.10;99.90;;;;;;5033972;28;20494;-72
2023/01/27 02:02:43;;;;;;;10.35;4.63;;;6.10;99.90;;;;;;5034250;28;20038;-72
2023/01/27 02:05:28;;;;;;;16.65;5.20;;;6.00;99.90;;;;;;5034366;28;20045;-72
2023/01/27 02:08:20;;;;;;;17.25;6.20;;;6.10;99.90;;;;;;5035758;28;20029;-72
2023/01/27 02:10:46;;;;;;;16.23;5.93;;;5.90;99.90;;;;;;5035449;28;20421;-72
2023/01/27 02:13:12;;;;;;;18.55;5.75;;;5.90;99.90;;;;;;5034494;28;20076;-71
2023/01/27 02:15:38;;;;;;;16.08;6.47;;;5.90;99.90;;;;;;5035595;28;20442;-72
2023/01/27 02:18:04;;;;;;;18.17;6.65;;;6.00;99.90;;;;;;5034932;28;20505;-72
2023/01/27 02:20:44;;;;;;;16.33;6.60;;;5.90;99.90;;;;;;5034788;28;20033;-72
2023/01/27 02:23:21;;;;;;;20.05;6.88;;;5.80;99.90;;;;;;5035434;28;20025;-72
2023/01/27 02:26:08;;;;;;;16.92;7.40;;;5.80;99.90;;;;;;5034979;28;20485;-71
2023/01/27 02:28:34;;;;;;;14.27;7.85;;;5.90;99.90;;;;;;5035043;28;20108;-72
2023/01/27 02:31:00;;;;;;;17.48;7.43;;;5.90;99.90;;;;;;5033769;28;20521;-72
2023/01/27 02:33:26;;;;;;;16.17;6.90;;;5.90;99.90;;;;;;5017788;28;20033;-71
2023/01/27 02:36:00;;;;;;;16.10;7.80;;;6.00;99.90;;;;;;5017203;28;20040;-72
2023/01/27 02:38:31;;;;;;;22.95;8.65;;;6.10;99.90;;;;;;5035196;28;20112;-72
2023/01/27 02:41:03;;;;;;;18.65;9.43;;;6.20;99.90;;;;;;5034855;28;20092;-72
2023/01/27 02:43:29;;;;;;;24.65;9.15;;;6.10;99.90;;;;;;5034180;28;20459;-72
2023/01/27 02:45:55;;;;;;;21.52;10.40;;;5.90;99.90;;;;;;5034384;28;20033;-72
2023/01/27 02:48:20;;;;;;;19.23;10.23;;;6.00;99.90;;;;;;5035035;28;20073;-72
2023/01/27 02:50:46;;;;;;;23.67;11.30;;;6.10;99.90;;;;;;5033765;28;20389;-72
2023/01/27 02:53:15;;;;;;;22.30;12.05;;;6.00;99.90;;;;;;5035161;28;20044;-69
2023/01/27 02:55:40;;;;;;;22.70;11.10;;;6.10;99.90;;;;;;5036000;28;20335;-69
2023/01/27 02:58:06;;;;;;;23.17;11.32;;;5.90;99.90;;;;;;5033735;28;20084;-70
2023/01/27 03:00:32;;;;;;;20.88;11.55;;;5.90;99.90;;;;;;5035205;28;20058;-70
2023/01/27 03:02:58;;;;;;;27.92;12.45;;;6.10;99.90;;;;;;5035000;28;20048;-69
2023/01/27 03:05:23;;;;;;;26.13;13.25;;;6.00;99.90;;;;;;5035192;28;20025;-68
2023/01/27 03:07:49;;;;;;;28.15;13.00;;;5.70;99.90;;;;;;5033685;28;20038;-68
2023/01/27 03:10:15;;;;;;;22.65;12.48;;;5.70;99.90;;;;;;5034530;28;20545;-68
2023/01/27 03:12:42;;;;;;;32.08;14.02;;;5.70;99.90;;;;;;5035054;28;20029;-68
2023/01/27 03:21:00;;;;;;;;;;;5.80;99.90;;;;;;5013025;28;20030;-68
2023/01/27 03:23:26;;;;;;;25.10;14.07;;;5.80;99.90;;;;;;5012521;28;19909;-68
2023/01/27 03:25:52;;;;;;;23.35;13.80;;;5.80;99.90;;;;;;5022893;28;20049;-68
2023/01/27 03:28:18;;;;;;;24.05;13.75;;;5.80;99.90;;;;;;5034425;28;20037;-68
2023/01/27 03:30:43;;;;;;;20.05;12.57;;;5.70;99.90;;;;;;5016725;28;20044;-68
2023/01/27 03:33:09;;;;;;;23.67;13.65;;;5.70;99.90;;;;;;5033376;28;20026;-68
2023/01/27 03:35:47;;;;;;;21.77;13.05;;;5.50;99.90;;;;;;5034289;28;20038;-68
2023/01/27 03:46:27;;;;;;;19.45;12.85;;;5.40;99.90;;;;;;5033906;28;20426;-68
2023/01/27 03:48:54;;;;;;;18.52;12.55;;;5.50;99.90;;;;;;5034061;28;20037;-69
2023/01/27 03:51:22;;;;;;;15.48;11.23;;;5.40;99.90;;;;;;5034179;28;20037;-69
2023/01/27 03:53:48;;;;;;;15.95;10.38;;;5.40;99.90;;;;;;5032989;28;20033;-69
2023/01/27 03:56:16;;;;;;;17.35;11.30;;;5.60;99.90;;;;;;5034148;28;20032;-69
2023/01/27 03:58:42;;;;;;;18.05;11.18;;;5.60;99.90;;;;;;5032861;28;20033;-69
2023/01/27 04:01:11;;;;;;;17.02;10.63;;;5.60;99.90;;;;;;5016251;28;20502;-69
2023/01/27 04:09:10;;;;;;;13.40;9.50;;;5.80;99.90;;;;;;5033995;28;20033;-69
2023/01/27 04:11:54;;;;;;;14.80;8.55;;;5.80;99.90;;;;;;5033921;28;20036;-69
2023/01/27 04:14:31;;;;;;;12.35;8.35;;;5.80;99.90;;;;;;5033344;28;20454;-69
2023/01/27 04:17:03;;;;;;;9.65;7.40;;;5.90;99.90;;;;;;5033676;28;20048;-69
2023/01/27 04:19:29;;;;;;;10.02;7.75;;;5.90;99.90;;;;;;5033745;28;20022;-69
2023/01/27 04:21:56;;;;;;;11.68;7.30;;;6.00;99.90;;;;;;5033308;28;20160;-69
2023/01/27 04:24:21;;;;;;;10.50;7.10;;;6.00;99.90;;;;;;5033569;28;20041;-69
2023/01/27 04:26:59;;;;;;;12.13;6.38;;;6.00;99.90;;;;;;5031780;28;20033;-69
2023/01/27 04:29:28;;;;;;;13.05;7.35;;;6.10;99.90;;;;;;5033774;28;20033;-69
2023/01/27 04:31:54;;;;;;;9.00;6.30;;;6.00;99.90;;;;;;5032196;28;20057;-69
2023/01/27 04:34:20;;;;;;;9.95;7.07;;;6.00;99.90;;;;;;5033208;28;20031;-69
2023/01/27 04:36:46;;;;;;;9.65;6.22;;;6.10;99.90;;;;;;5033143;28;20108;-69
2023/01/27 04:39:14;;;;;;;8.32;6.13;;;6.10;99.90;;;;;;5033881;28;20092;-69
2023/01/27 04:41:41;;;;;;;8.73;6.57;;;6.00;99.90;;;;;;5032084;28;20056;-69
2023/01/27 04:44:07;;;;;;;8.52;6.28;;;6.00;99.90;;;;;;5034438;28;20064;-69
2023/01/27 04:46:33;;;;;;;9.45;6.15;;;5.90;99.90;;;;;;5036470;28;20114;-69
2023/01/27 04:48:59;;;;;;;7.55;5.82;;;5.90;99.90;;;;;;5037911;28;20037;-69
2023/01/27 04:51:26;;;;;;;9.55;6.45;;;5.80;99.90;;;;;;5037152;28;20037;-69
2023/01/27 04:53:52;;;;;;;9.52;6.38;;;5.90;99.90;;;;;;5036371;28;20432;-69
2023/01/27 04:56:27;;;;;;;8.38;5.65;;;5.90;99.90;;;;;;5037274;28;20411;-69
2023/01/27 04:58:53;;;;;;;8.13;5.53;;;5.90;99.90;;;;;;5038020;28;20030;-69
2023/01/27 05:01:19;;;;;;;7.00;5.82;;;5.90;99.90;;;;;;5037093;28;20132;-69
2023/01/27 05:03:45;;;;;;;7.43;5.47;;;5.90;99.90;;;;;;5037348;28;20035;-69
2023/01/27 05:06:12;;;;;;;8.20;5.38;;;5.90;99.90;;;;;;5036614;28;20038;-69
2023/01/27 05:08:38;;;;;;;10.05;5.57;;;5.90;99.90;;;;;;5037472;28;20037;-69
2023/01/27 05:11:04;;;;;;;6.30;5.10;;;5.80;99.90;;;;;;5037491;28;20110;-69
2023/01/27 05:13:30;;;;;;;9.18;5.13;;;5.70;99.90;;;;;;5035936;28;20433;-69
2023/01/27 05:16:12;;;;;;;6.95;4.88;;;5.80;99.90;;;;;;5037403;28;20033;-69
2023/01/27 05:18:38;;;;;;;7.18;5.13;;;5.90;99.90;;;;;;5037136;28;20056;-69
2023/01/27 05:21:05;;;;;;;6.47;4.88;;;5.80;99.90;;;;;;5020080;28;20401;-69
2023/01/27 05:23:34;;;;;;;5.93;4.57;;;5.70;99.90;;;;;;5036917;28;20044;-69
2023/01/27 05:26:14;;;;;;;5.47;4.28;;;5.80;99.90;;;;;;5037433;28;20026;-69
2023/01/27 05:28:42;;;;;;;7.57;4.60;;;5.80;99.90;;;;;;5036165;28;20099;-69
2023/01/27 05:31:14;;;;;;;6.80;4.65;;;6.00;99.90;;;;;;5035558;28;20040;-68
2023/01/27 05:33:41;;;;;;;6.93;4.50;;;5.90;99.90;;;;;;5037466;28;20040;-69
2023/01/27 05:36:10;;;;;;;5.85;4.15;;;5.90;99.90;;;;;;5036121;28;20064;-69
2023/01/27 05:38:36;;;;;;;5.72;4.22;;;5.80;99.90;;;;;;5036758;28;20044;-69
2023/01/27 05:41:04;;;;;;;5.80;3.90;;;5.80;99.90;;;;;;5037057;28;20033;-69
2023/01/27 05:43:31;;;;;;;6.68;3.75;;;5.90;99.90;;;;;;5037455;28;20075;-69
2023/01/27 05:46:10;;;;;;;4.25;3.70;;;6.00;99.90;;;;;;5034959;28;20517;-69
2023/01/27 05:48:38;;;;;;;7.93;4.05;;;6.10;99.90;;;;;;5035802;28;20037;-69
2023/01/27 05:51:04;;;;;;;5.95;4.03;;;6.20;99.90;;;;;;5036851;28;20518;-69
2023/01/27 05:53:31;;;;;;;4.22;3.83;;;6.30;99.90;;;;;;5036432;28;20099;-69
2023/01/27 05:55:57;;;;;;;4.07;3.42;;;6.20;99.90;;;;;;5034644;28;20352;-69
2023/01/27 05:58:23;;;;;;;6.13;4.28;;;6.20;99.90;;;;;;5035004;28;20043;-69
2023/01/27 06:00:49;;;;;;;6.03;4.10;;;6.30;99.90;;;;;;5036619;28;20136;-69
2023/01/27 06:03:16;;;;;;;7.93;4.30;;;6.30;99.90;;;;;;5036887;28;20460;-69
2023/01/27 06:05:53;;;;;;;6.82;3.70;;;6.30;99.90;;;;;;5036136;28;20047;-69
2023/01/27 06:08:19;;;;;;;6.43;4.20;;;6.30;99.90;;;;;;5036078;28;20095;-68
2023/01/27 06:10:44;;;;;;;5.05;3.78;;;6.30;99.90;;;;;;5035010;28;20033;-69
2023/01/27 06:13:11;;;;;;;5.55;4.20;;;6.40;99.90;;;;;;5036546;28;20033;-69
2023/01/27 06:15:40;;;;;;;5.68;4.13;;;6.30;99.90;;;;;;5036349;28;20481;-69
2023/01/27 06:18:05;;;;;;;8.23;4.40;;;6.20;99.90;;;;;;5035111;28;20537;-69
2023/01/27 06:20:31;;;;;;;6.05;3.72;;;6.20;99.90;;;;;;5035143;28;20120;-69
2023/01/27 06:22:57;;;;;;;6.60;3.92;;;6.20;99.90;;;;;;5035781;28;20026;-69
2023/01/27 06:25:23;;;;;;;6.03;4.18;;;6.20;99.90;;;;;;5035779;28;20347;-69
2023/01/27 06:27:56;;;;;;;6.68;3.95;;;6.30;99.90;;;;;;5035691;28;20143;-69
2023/01/27 06:30:22;;;;;;;4.53;3.90;;;6.30;99.90;;;;;;5035648;28;20164;-68
2023/01/27 06:32:47;;;;;;;3.88;3.35;;;6.20;99.90;;;;;;5035836;28;20076;-69
2023/01/27 06:35:13;;;;;;;4.28;3.50;;;6.20;99.90;;;;;;5034387;28;20029;-68
2023/01/27 06:37:39;;;;;;;4.32;3.15;;;6.30;99.90;;;;;;5035441;28;20034;-69
2023/01/27 06:40:05;;;;;;;4.35;3.55;;;6.30;99.90;;;;;;5035678;28;20034;-68
2023/01/27 06:42:30;;;;;;;5.57;3.00;;;6.30;99.90;;;;;;5034095;28;20029;-69
2023/01/27 06:44:56;;;;;;;5.65;2.75;;;6.40;99.90;;;;;;5034932;28;20032;-68
2023/01/27 06:47:22;;;;;;;4.32;2.90;;;6.30;99.90;;;;;;5034303;28;20033;-68
2023/01/27 06:49:47;;;;;;;4.38;3.05;;;6.50;99.90;;;;;;5033703;28;20037;-69
2023/01/27 06:52:13;;;;;;;6.72;2.92;;;6.50;99.90;;;;;;5035112;28;20415;-68
2023/01/27 06:54:38;;;;;;;3.92;2.80;;;6.60;99.90;;;;;;5034223;28;20030;-68
2023/01/27 06:57:04;;;;;;;4.80;2.92;;;6.60;99.90;;;;;;5033605;28;20087;-69
2023/01/27 06:59:30;;;;;;;4.13;3.13;;;6.50;99.90;;;;;;5017375;28;20042;-68
2023/01/27 07:01:55;;;;;;;6.13;2.83;;;6.60;99.90;;;;;;5033447;28;20057;-69
2023/01/27 07:04:21;;;;;;;6.50;2.47;;;6.50;99.90;;;;;;5035295;28;20032;-70
2023/01/27 07:06:47;;;;;;;3.83;2.30;;;6.60;99.90;;;;;;5034106;28;20041;-69
2023/01/27 07:09:12;;;;;;;6.53;2.95;;;6.50;99.90;;;;;;5033489;28;20470;-68
2023/01/27 07:11:38;;;;;;;3.33;2.50;;;6.60;99.90;;;;;;5035014;28;20034;-71
2023/01/27 07:14:03;;;;;;;3.75;2.22;;;6.60;99.90;;;;;;5034496;28;20084;-71
2023/01/27 07:16:29;;;;;;;6.78;3.10;;;6.60;99.90;;;;;;5033423;28;20537;-70
2023/01/27 07:18:55;;;;;;;4.50;2.38;;;6.70;99.90;;;;;;5034114;28;20478;-71
2023/01/27 07:21:20;;;;;;;4.38;2.75;;;6.70;99.90;;;;;;5034303;28;20478;-71
2023/01/27 07:23:46;;;;;;;3.22;2.10;;;6.50;99.90;;;;;;5034199;28;20478;-71
2023/01/27 07:26:11;;;;;;;2.80;2.10;;;6.30;99.90;;;;;;5034223;28;20032;-71
2023/01/27 07:28:37;;;;;;;2.80;2.40;;;6.30;99.90;;;;;;5032871;28;20029;-71
2023/01/27 07:31:03;;;;;;;3.65;1.90;;;6.30;99.90;;;;;;5034581;28;20052;-70
2023/01/27 07:33:28;;;;;;;3.65;2.35;;;6.30;99.90;;;;;;5033318;28;20355;-70
2023/01/27 07:35:54;;;;;;;3.13;1.85;;;6.30;99.90;;;;;;5033105;28;20084;-71
2023/01/27 07:38:20;;;;;;;2.67;2.13;;;6.10;99.90;;;;;;5034476;28;20041;-71
2023/01/27 07:40:46;;;;;;;3.47;1.73;;;6.10;99.90;;;;;;5034276;28;20033;-70
2023/01/27 07:43:12;;;;;;;2.72;2.08;;;6.00;99.90;;;;;;5033120;28;20083;-69
2023/01/27 07:45:37;;;;;;;5.50;2.15;;;6.20;99.90;;;;;;5034805;28;20033;-70
2023/01/27 07:48:07;;;;;;;2.92;1.98;;;6.30;99.90;;;;;;5034343;28;20446;-69
2023/01/27 07:50:34;;;;;;;3.63;2.10;;;6.40;99.90;;;;;;5032523;28;20041;-69
2023/01/27 07:53:04;;;;;;;1.75;1.60;;;6.30;99.90;;;;;;5033827;28;20063;-69
2023/01/27 07:55:31;;;;;;;5.30;1.77;;;6.30;99.90;;;;;;5034562;28;20041;-69
2023/01/27 07:57:57;;;;;;;3.33;1.50;;;6.40;99.90;;;;;;5032771;28;20044;-69
2023/01/27 08:00:23;;;;;;;3.83;2.00;;;6.60;99.90;;;;;;5033639;28;20366;-70
2023/01/27 08:02:53;;;;;;;3.35;1.75;;;6.60;99.90;;;;;;5033803;28;20036;-70
2023/01/27 08:05:19;;;;;;;3.03;1.98;;;6.60;99.90;;;;;;5033479;28;20057;-70
2023/01/27 08:07:45;;;;;;;2.35;1.45;;;6.60;99.90;;;;;;5033813;28;20346;-69
2023/01/27 08:10:11;;;;;;;3.88;2.03;;;6.50;99.90;;;;;;5033255;28;20029;-69
2023/01/27 08:12:37;;;;;;;5.75;2.20;;;6.30;99.90;;;;;;5033345;28;20037;-69
2023/01/27 08:15:03;;;;;;;3.17;1.60;;;6.30;99.90;;;;;;5033103;28;20037;-68
2023/01/27 08:17:29;;;;;;;2.83;1.58;;;6.40;99.90;;;;;;5033185;28;20034;-69
2023/01/27 08:19:54;;;;;;;3.40;1.58;;;6.30;99.90;;;;;;5031208;28;20041;-68
2023/01/27 08:22:20;;;;;;;3.22;1.98;;;6.10;99.90;;;;;;5031927;28;20030;-69
2023/01/27 08:24:49;;;;;;;3.67;1.83;;;6.10;99.90;;;;;;5033325;28;20033;-69
2023/01/27 08:27:16;;;;;;;4.65;1.60;;;6.10;99.90;;;;;;5033328;28;20072;-70
2023/01/27 08:29:42;;;;;;;3.67;1.67;;;6.30;99.90;;;;;;5033429;28;20040;-70
2023/01/27 08:32:09;;;;;;;3.35;1.50;;;6.40;99.90;;;;;;5033317;28;20034;-69
2023/01/27 08:34:35;;;;;;;2.90;1.67;;;6.20;99.90;;;;;;5033241;28;20033;-69
2023/01/27 08:37:01;;;;;;;4.53;1.70;;;6.30;99.90;;;;;;5032724;28;20033;-70
2023/01/27 08:39:27;;;;;;;8.85;2.10;;;6.10;99.90;;;;;;5033395;28;20033;-70
2023/01/27 08:41:52;;;;;;;2.78;1.48;;;6.10;99.90;;;;;;5033410;28;20026;-70
2023/01/27 08:44:18;;;;;;;4.80;2.28;;;6.00;99.90;;;;;;5031139;28;20205;-70
2023/01/27 08:46:44;;;;;;;3.67;1.40;;;6.00;99.90;;;;;;5032663;28;20450;-70
2023/01/27 08:49:09;;;;;;;3.90;1.50;;;6.00;99.90;;;;;;5032925;28;20045;-70
2023/01/27 08:51:35;;;;;;;5.93;1.70;;;6.10;99.90;;;;;;5032837;28;20029;-69
2023/01/27 08:54:01;;;;;;;3.10;1.35;;;6.20;99.90;;;;;;5033138;28;20374;-69
2023/01/27 08:56:26;;;;;;;3.03;1.52;;;6.20;99.90;;;;;;5032960;28;20033;-70
2023/01/27 08:58:52;;;;;;;2.95;1.67;;;6.20;99.90;;;;;;5032831;28;20359;-69
2023/01/27 09:01:19;;;;;;;2.13;1.45;;;6.20;99.90;;;;;;5032582;28;20513;-69
2023/01/27 09:03:45;;;;;;;1.88;1.30;;;6.10;99.90;;;;;;5032647;28;20419;-71
2023/01/27 09:06:12;;;;;;;3.53;2.28;;;5.90;99.90;;;;;;5031393;28;20124;-71
2023/01/27 09:08:40;;;;;;;3.17;1.83;;;5.90;99.90;;;;;;5031922;28;20029;-71
2023/01/27 09:11:14;;;;;;;3.55;1.70;;;5.90;99.90;;;;;;5032405;28;20112;-71
2023/01/27 09:13:40;;;;;;;2.58;1.80;;;5.80;99.90;;;;;;5033055;28;20017;-71
2023/01/27 09:16:06;;;;;;;3.25;2.00;;;5.90;99.90;;;;;;5032768;28;20459;-71
2023/01/27 09:18:33;;;;;;;3.60;2.00;;;6.00;99.90;;;;;;5015292;28;20037;-71
2023/01/27 09:21:03;;;;;;;2.70;1.90;;;6.10;99.90;;;;;;5032372;28;20382;-71
2023/01/27 09:23:29;;;;;;;2.67;2.00;;;6.10;99.90;;;;;;5033087;28;20037;-71
2023/01/27 09:25:54;;;;;;;4.18;2.40;;;6.10;99.90;;;;;;5031411;28;20038;-71
2023/01/27 09:28:20;;;;;;;2.65;2.10;;;6.00;99.90;;;;;;5032689;28;20068;-71
2023/01/27 09:30:46;;;;;;;5.53;2.50;;;5.70;99.90;;;;;;5033976;28;20095;-71
2023/01/27 09:33:13;;;;;;;2.90;2.50;;;5.80;99.90;;;;;;5035063;28;20034;-71
2023/01/27 09:35:47;;;;;;;3.25;2.20;;;5.80;99.90;;;;;;5035964;28;20057;-71
2023/01/27 09:38:17;;;;;;;4.63;2.65;;;5.90;99.90;;;;;;5035200;28;20358;-71
2023/01/27 09:41:05;;;;;;;2.83;2.22;;;6.00;99.90;;;;;;5036087;28;20025;-71
2023/01/27 09:43:53;;;;;;;4.32;2.13;;;5.80;99.90;;;;;;5035919;28;20035;-71
2023/01/27 09:47:02;;;;;;;3.20;2.10;;;5.90;99.90;;;;;;5035821;28;20111;-71
2023/01/27 09:49:31;;;;;;;4.22;2.47;;;5.90;99.90;;;;;;5034452;28;20429;-70
2023/01/27 09:52:03;;;;;;;4.68;2.55;;;5.90;99.90;;;;;;5035897;28;20033;-72
2023/01/27 09:54:56;;;;;;;2.72;1.90;;;5.80;99.90;;;;;;5035626;28;20033;-72
2023/01/27 09:57:42;;;;;;;6.10;2.95;;;5.80;99.90;;;;;;5034396;28;20044;-72
2023/01/27 10:00:14;;;;;;;4.40;3.00;;;5.90;99.90;;;;;;5036221;28;20083;-72
2023/01/27 10:02:57;;;;;;;3.42;2.53;;;5.90;99.90;;;;;;5036097;28;20056;-72
2023/01/27 10:05:26;;;;;;;5.40;2.47;;;5.90;99.90;;;;;;5035646;28;20033;-72
2023/01/27 10:08:06;;;;;;;4.70;2.40;;;5.90;99.90;;;;;;5035522;28;20554;-72
2023/01/27 10:10:59;;;;;;;2.78;2.28;;;6.00;99.90;;;;;;5035665;28;20037;-72
2023/01/27 10:13:30;;;;;;;4.40;3.10;;;6.10;99.90;;;;;;5034939;28;20074;-72
2023/01/27 10:16:09;;;;;;;3.60;2.50;;;6.10;99.90;;;;;;5034467;28;20488;-72
2023/01/27 10:18:54;;;;;;;3.40;2.85;;;5.90;99.90;;;;;;5034089;28;20040;-72
2023/01/27 10:21:26;;;;;;;3.00;2.63;;;5.90;99.90;;;;;;5035187;28;20025;-72
2023/01/27 10:24:02;;;;;;;3.50;2.22;;;6.00;99.90;;;;;;5035704;28;20096;-72
2023/01/27 10:26:36;;;;;;;2.83;2.55;;;6.10;99.90;;;;;;5035124;28;20037;-72
2023/01/27 10:29:22;;;;;;;6.75;3.33;;;6.10;99.90;;;;;;5035180;28;20120;-72
2023/01/27 10:32:23;;;;;;;4.63;2.85;;;6.00;99.90;;;;;;5034099;28;20430;-72
2023/01/27 10:35:11;;;;;;;3.42;2.72;;;5.90;99.90;;;;;;5035139;28;20025;-72
2023/01/27 10:37:46;;;;;;;3.78;3.38;;;5.90;99.90;;;;;;5035145;28;20029;-72
2023/01/27 10:40:35;;;;;;;3.75;2.80;;;5.90;99.90;;;;;;5035400;28;20100;-72
2023/01/27 10:43:25;;;;;;;6.22;3.55;;;5.90;99.90;;;;;;5035010;28;20033;-71
2023/01/27 10:46:02;;;;;;;6.00;3.35;;;5.90;99.90;;;;;;5033562;28;20120;-72
2023/01/27 10:49:05;;;;;;;3.45;2.72;;;6.00;99.90;;;;;;5034764;28;20029;-73
2023/01/27 10:51:38;;;;;;;4.35;3.20;;;6.00;99.90;;;;;;5034632;28;20037;-72
2023/01/27 10:54:07;;;;;;;2.92;2.55;;;6.10;99.90;;;;;;5035765;28;20311;-72
2023/01/27 10:56:40;;;;;;;3.28;2.60;;;6.20;99.90;;;;;;5035113;28;20031;-71
2023/01/27 10:59:33;;;;;;;4.35;3.05;;;6.30;99.90;;;;;;5034741;28;20389;-72
2023/01/27 11:02:40;;;;;;;4.03;2.80;;;6.40;99.90;;;;;;5034148;28;20132;-72
2023/01/27 11:05:19;;;;;;;5.18;3.00;;;6.30;99.90;;;;;;5034572;28;20794;-72
2023/01/27 11:07:56;;;;;;;2.95;2.40;;;6.20;99.90;;;;;;5034932;28;20037;-71
2023/01/27 11:10:26;;;;;;;4.78;2.53;;;6.20;99.90;;;;;;5017485;28;20095;-72
2023/01/27 11:12:55;;;;;;;5.80;3.72;;;6.30;99.90;;;;;;5033182;28;20025;-72
2023/01/27 11:15:26;;;;;;;2.97;2.72;;;6.20;99.90;;;;;;5034277;28;20033;-72
2023/01/27 11:18:12;;;;;;;3.38;2.80;;;6.20;99.90;;;;;;5033990;28;20514;-72
2023/01/27 11:20:41;;;;;;;3.55;3.25;;;6.30;99.90;;;;;;5033450;28;20120;-72
2023/01/27 11:23:37;;;;;;;2.97;2.65;;;6.40;99.90;;;;;;5034495;28;20040;-72
2023/01/27 11:26:29;;;;;;;3.50;2.58;;;6.50;99.90;;;;;;5033919;28;20037;-72
2023/01/27 11:29:15;;;;;;;3.17;2.80;;;6.60;99.90;;;;;;5030759;28;20050;-73
2023/01/27 11:32:11;;;;;;;5.45;3.10;;;6.80;99.90;;;;;;5033997;28;20045;-73
2023/01/27 11:35:14;;;;;;;2.72;2.10;;;7.00;99.90;;;;;;5032722;28;20116;-73
2023/01/27 11:37:42;;;;;;;5.15;2.35;;;7.00;99.90;;;;;;5031666;28;20042;-73
2023/01/27 11:40:20;;;;;;;3.33;2.65;;;6.90;99.90;;;;;;5033522;28;20034;-72
2023/01/27 11:42:46;;;;;;;3.20;2.83;;;6.70;99.90;;;;;;5032604;28;20470;-72
2023/01/27 11:45:17;;;;;;;2.95;2.20;;;6.60;99.90;;;;;;5033904;28;20041;-73
2023/01/27 11:47:46;;;;;;;4.00;1.95;;;6.70;99.90;;;;;;5033909;28;20034;-72
2023/01/27 11:50:17;;;;;;;2.83;2.22;;;6.90;99.90;;;;;;5034069;28;20088;-72
2023/01/27 11:52:50;;;;;;;2.70;2.17;;;7.10;99.90;;;;;;5034145;28;20091;-73
2023/01/27 11:55:32;;;;;;;3.53;2.28;;;7.10;99.90;;;;;;5032886;28;20026;-73
2023/01/27 11:58:26;;;;;;;3.70;2.38;;;7.00;99.90;;;;;;5033844;28;20060;-73
2023/01/27 12:01:06;;;;;;;2.88;1.92;;;7.00;99.90;;;;;;5033387;28;20140;-73
2023/01/27 12:03:50;;;;;;;2.20;1.98;;;6.80;99.90;;;;;;5033943;28;20025;-71
2023/01/27 12:06:37;;;;;;;2.38;2.17;;;6.60;99.90;;;;;;5033899;28;20033;-73
2023/01/27 12:09:02;;;;;;;3.92;2.88;;;6.70;99.90;;;;;;5033867;28;20056;-71
2023/01/27 12:11:30;;;;;;;2.38;2.17;;;6.70;99.90;;;;;;5033591;28;20459;-70
2023/01/27 12:14:03;;;;;;;3.78;2.47;;;6.40;99.90;;;;;;5033631;28;20108;-71
2023/01/27 12:16:49;;;;;;;2.35;1.90;;;6.50;99.90;;;;;;5032218;28;20034;-71
2023/01/27 12:19:26;;;;;;;3.45;2.67;;;6.70;99.90;;;;;;5033878;28;20060;-72
2023/01/27 12:21:57;;;;;;;2.80;2.10;;;6.80;99.90;;;;;;5033603;28;20083;-69
2023/01/27 12:24:33;;;;;;;2.58;2.08;;;6.80;99.90;;;;;;5032051;28;20029;-69
2023/01/27 12:27:00;;;;;;;3.42;1.50;;;7.10;99.90;;;;;;5032272;28;20527;-70
2023/01/27 12:30:00;;;;;;;2.97;2.60;;;7.30;99.90;;;;;;5033482;28;20044;-68
2023/01/27 12:32:38;;;;;;;2.25;1.90;;;7.20;99.90;;;;;;5033058;28;20505;-69
2023/01/27 12:35:06;;;;;;;3.90;2.20;;;7.10;99.90;;;;;;5033528;28;20026;-69
2023/01/27 12:37:37;;;;;;;3.00;2.03;;;7.20;99.90;;;;;;5032803;28;20041;-69
2023/01/27 12:40:24;;;;;;;3.22;2.65;;;7.20;99.90;;;;;;5033449;28;20041;-69
2023/01/27 12:43:16;;;;;;;2.80;2.60;;;7.30;99.90;;;;;;5033506;28;20029;-69
2023/01/27 12:45:42;;;;;;;3.17;2.80;;;7.20;99.90;;;;;;5032253;28;20025;-68
2023/01/27 12:48:08;;;;;;;2.75;2.20;;;7.10;99.90;;;;;;5032719;28;20140;-68
2023/01/27 12:50:51;;;;;;;3.30;2.33;;;7.20;99.90;;;;;;5033016;28;20101;-69
2023/01/27 12:53:26;;;;;;;2.15;2.05;;;7.20;99.90;;;;;;5032963;28;20030;-69
2023/01/27 12:56:07;;;;;;;4.50;2.67;;;7.30;99.90;;;;;;5032822;28;20029;-69
2023/01/27 12:58:34;;;;;;;3.13;2.33;;;7.40;99.90;;;;;;5032952;28;20063;-69
2023/01/27 13:01:20;;;;;;;4.32;2.85;;;7.40;99.90;;;;;;5031325;28;20050;-68
2023/01/27 13:03:56;;;;;;;3.90;3.00;;;7.20;99.90;;;;;;5032770;28;20067;-69
2023/01/27 13:06:46;;;;;;;4.50;3.15;;;7.10;99.90;;;;;;5036149;28;20021;-69
2023/01/27 13:09:17;;;;;;;3.40;3.10;;;6.90;99.90;;;;;;5037144;28;20034;-69
2023/01/27 13:11:44;;;;;;;3.65;3.15;;;6.80;99.90;;;;;;5036515;28;20100;-68
2023/01/27 13:14:16;;;;;;;4.35;2.85;;;6.80;99.90;;;;;;5035659;28;20033;-68
2023/01/27 13:16:57;;;;;;;2.85;2.65;;;6.80;99.90;;;;;;5037066;28;20029;-70
2023/01/27 13:19:33;;;;;;;5.00;3.55;;;6.80;99.90;;;;;;5036819;28;20038;-68
2023/01/27 13:22:01;;;;;;;4.00;2.88;;;6.90;99.90;;;;;;5037115;28;20100;-69
2023/01/27 13:24:36;;;;;;;5.00;2.72;;;7.00;99.90;;;;;;5036559;28;20038;-70
2023/01/27 13:27:04;;;;;;;3.08;2.40;;;7.10;99.90;;;;;;5036145;28;20116;-71
2023/01/27 13:29:33;;;;;;;3.28;2.70;;;7.00;99.90;;;;;;5036351;28;20410;-70
2023/01/27 13:32:08;;;;;;;3.55;2.63;;;7.10;99.90;;;;;;5036514;28;20485;-72
2023/01/27 13:34:48;;;;;;;3.33;2.63;;;7.10;99.90;;;;;;5034832;28;20064;-72
2023/01/27 13:37:19;;;;;;;3.40;2.90;;;7.00;99.90;;;;;;5036302;28;20041;-71